sensor_id;sensor_type;location;lat;lon;timestamp;pressure;altitude;pressure_sealevel;temperature;humidity
52249;BME280;38541;48.130;8.378;2023-12-20T00:01:02;92731.69;;;5.02;73.99
52249;BME280;38541;48.130;8.378;2023-12-20T00:03:29;92733.94;;;5.10;73.96
52249;BME280;38541;48.130;8.378;2023-12-20T00:06:07;92742.97;;;5.20;73.41
52249;BME280;38541;48.130;8.378;2023-12-20T00:08:34;92728.50;;;5.24;73.10
52249;BME280;38541;48.130;8.378;2023-12-20T00:11:00;92727.59;;;5.30;73.18
52249;BME280;38541;48.130;8.378;2023-12-20T00:13:27;92728.13;;;5.32;72.87
52249;BME280;38541;48.130;8.378;2023-12-20T00:15:53;92721.00;;;5.27;73.15
52249;BME280;38541;48.130;8.378;2023-12-20T00:18:20;92718.97;;;5.41;72.62
52249;BME280;38541;48.130;8.378;2023-12-20T00:20:46;92714.41;;;5.49;72.24
52249;BME280;38541;48.130;8.378;2023-12-20T00:23:13;92720.72;;;5.53;72.01
52249;BME280;38541;48.130;8.378;2023-12-20T00:25:39;92707.63;;;5.48;72.09
52249;BME280;38541;48.130;8.378;2023-12-20T00:28:06;92704.91;;;5.42;72.56
52249;BME280;38541;48.130;8.378;2023-12-20T00:30:33;92699.94;;;5.29;73.18
52249;BME280;38541;48.130;8.378;2023-12-20T00:32:59;92703.03;;;5.26;73.68
52249;BME280;38541;48.130;8.378;2023-12-20T00:35:26;92702.91;;;5.09;74.48
52249;BME280;38541;48.130;8.378;2023-12-20T00:37:53;92711.72;;;5.20;74.65
52249;BME280;38541;48.130;8.378;2023-12-20T00:40:19;92709.38;;;5.18;74.79
52249;BME280;38541;48.130;8.378;2023-12-20T00:42:47;92700.19;;;5.16;75.35
52249;BME280;38541;48.130;8.378;2023-12-20T00:45:14;92695.78;;;5.16;75.70
52249;BME280;38541;48.130;8.378;2023-12-20T00:47:40;92706.53;;;5.08;76.41
52249;BME280;38541;48.130;8.378;2023-12-20T00:50:08;92701.03;;;5.04;76.70
52249;BME280;38541;48.130;8.378;2023-12-20T00:52:36;92707.00;;;5.05;76.83
52249;BME280;38541;48.130;8.378;2023-12-20T00:55:03;92708.25;;;5.02;77.43
52249;BME280;38541;48.130;8.378;2023-12-20T00:57:30;92704.53;;;4.98;77.85
52249;BME280;38541;48.130;8.378;2023-12-20T00:59:57;92722.06;;;5.03;77.93
52249;BME280;38541;48.130;8.378;2023-12-20T01:02:24;92717.09;;;4.89;78.68
52249;BME280;38541;48.130;8.378;2023-12-20T01:04:50;92711.88;;;4.89;79.31
52249;BME280;38541;48.130;8.378;2023-12-20T01:07:17;92723.56;;;4.87;79.64
52249;BME280;38541;48.130;8.378;2023-12-20T01:09:44;92703.19;;;4.83;79.76
52249;BME280;38541;48.130;8.378;2023-12-20T01:12:11;92718.56;;;4.85;79.90
52249;BME280;38541;48.130;8.378;2023-12-20T01:14:37;92716.22;;;4.83;79.96
52249;BME280;38541;48.130;8.378;2023-12-20T01:17:05;92706.78;;;4.82;79.82
52249;BME280;38541;48.130;8.378;2023-12-20T01:19:32;92712.91;;;4.76;80.07
52249;BME280;38541;48.130;8.378;2023-12-20T01:21:59;92701.59;;;4.70;80.14
52249;BME280;38541;48.130;8.378;2023-12-20T01:24:25;92712.91;;;4.76;80.07
52249;BME280;38541;48.130;8.378;2023-12-20T01:26:52;92700.81;;;4.70;80.07
52249;BME280;38541;48.130;8.378;2023-12-20T01:29:18;92705.09;;;4.76;79.98
52249;BME280;38541;48.130;8.378;2023-12-20T01:31:45;92685.97;;;4.82;79.42
52249;BME280;38541;48.130;8.378;2023-12-20T01:34:12;92694.78;;;4.81;79.43
52249;BME280;38541;48.130;8.378;2023-12-20T01:36:38;92701.16;;;4.85;79.33
52249;BME280;38541;48.130;8.378;2023-12-20T01:39:05;92700.91;;;4.87;79.02
52249;BME280;38541;48.130;8.378;2023-12-20T01:41:46;92710.28;;;4.88;79.00
52249;BME280;38541;48.130;8.378;2023-12-20T01:44:12;92710.66;;;4.92;78.96
52249;BME280;38541;48.130;8.378;2023-12-20T01:46:39;92707.59;;;4.95;79.03
52249;BME280;38541;48.130;8.378;2023-12-20T01:49:06;92713.47;;;4.90;78.65
52249;BME280;38541;48.130;8.378;2023-12-20T01:51:33;92720.41;;;4.84;79.02
52249;BME280;38541;48.130;8.378;2023-12-20T01:54:00;92713.47;;;4.90;79.22
52249;BME280;38541;48.130;8.378;2023-12-20T01:56:28;92722.28;;;4.89;78.92
52249;BME280;38541;48.130;8.378;2023-12-20T01:58:55;92726.47;;;4.90;79.15
52249;BME280;38541;48.130;8.378;2023-12-20T02:01:23;92728.66;;;4.93;79.01
52249;BME280;38541;48.130;8.378;2023-12-20T02:03:49;92730.66;;;4.79;78.34
52249;BME280;38541;48.130;8.378;2023-12-20T02:06:18;92741.63;;;4.81;79.01
52249;BME280;38541;48.130;8.378;2023-12-20T02:08:45;92736.44;;;4.81;79.23
52249;BME280;38541;48.130;8.378;2023-12-20T02:11:11;92740.06;;;4.80;78.91
52249;BME280;38541;48.130;8.378;2023-12-20T02:13:38;92721.41;;;4.83;78.99
52249;BME280;38541;48.130;8.378;2023-12-20T02:16:04;92728.53;;;4.76;78.90
52249;BME280;38541;48.130;8.378;2023-12-20T02:18:31;92708.16;;;4.73;79.11
52249;BME280;38541;48.130;8.378;2023-12-20T02:20:58;92710.88;;;4.78;79.36
52249;BME280;38541;48.130;8.378;2023-12-20T02:23:25;92707.25;;;4.79;79.19
52249;BME280;38541;48.130;8.378;2023-12-20T02:25:51;92711.56;;;4.85;79.08
52249;BME280;38541;48.130;8.378;2023-12-20T02:28:18;92710.66;;;4.92;78.27
52249;BME280;38541;48.130;8.378;2023-12-20T02:30:45;92714.72;;;4.88;78.24
52249;BME280;38541;48.130;8.378;2023-12-20T02:33:12;92723.19;;;4.95;78.26
52249;BME280;38541;48.130;8.378;2023-12-20T02:35:39;92725.03;;;4.94;77.83
52249;BME280;38541;48.130;8.378;2023-12-20T02:38:05;92737.34;;;4.87;78.14
52249;BME280;38541;48.130;8.378;2023-12-20T02:40:32;92721.41;;;4.83;78.14
52249;BME280;38541;48.130;8.378;2023-12-20T02:42:58;92719.94;;;4.88;78.31
52249;BME280;38541;48.130;8.378;2023-12-20T02:45:26;92724.44;;;4.92;78.00
52249;BME280;38541;48.130;8.378;2023-12-20T02:47:53;92718.66;;;4.90;77.56
52249;BME280;38541;48.130;8.378;2023-12-20T02:50:19;92713.34;;;4.85;77.84
52249;BME280;38541;48.130;8.378;2023-12-20T02:52:46;92706.22;;;4.80;77.53
52249;BME280;38541;48.130;8.378;2023-12-20T02:55:13;92709.63;;;4.81;77.40
52249;BME280;38541;48.130;8.378;2023-12-20T02:57:39;92708.41;;;4.83;77.29
52249;BME280;38541;48.130;8.378;2023-12-20T03:00:09;92701.25;;;4.79;77.53
52249;BME280;38541;48.130;8.378;2023-12-20T03:02:37;92713.91;;;4.87;77.64
52249;BME280;38541;48.130;8.378;2023-12-20T03:05:03;92722.66;;;4.69;77.46
52249;BME280;38541;48.130;8.378;2023-12-20T03:07:30;92716.06;;;4.78;77.29
52249;BME280;38541;48.130;8.378;2023-12-20T03:09:56;92717.44;;;4.93;77.29
52249;BME280;38541;48.130;8.378;2023-12-20T03:12:43;92717.09;;;4.89;76.79
52249;BME280;38541;48.130;8.378;2023-12-20T03:15:10;92724.34;;;4.87;76.69
52249;BME280;38541;48.130;8.378;2023-12-20T03:17:36;92722.41;;;4.82;76.52
52249;BME280;38541;48.130;8.378;2023-12-20T03:20:03;92725.81;;;4.83;76.54
52249;BME280;38541;48.130;8.378;2023-12-20T03:22:30;92733.28;;;4.79;76.14
52249;BME280;38541;48.130;8.378;2023-12-20T03:24:57;92734.53;;;4.77;76.73
52249;BME280;38541;48.130;8.378;2023-12-20T03:27:23;92729.66;;;4.80;76.47
52249;BME280;38541;48.130;8.378;2023-12-20T03:29:50;92728.06;;;4.79;76.21
52249;BME280;38541;48.130;8.378;2023-12-20T03:32:16;92736.91;;;4.78;75.80
52249;BME280;38541;48.130;8.378;2023-12-20T03:34:43;92730.22;;;4.70;75.57
52249;BME280;38541;48.130;8.378;2023-12-20T03:37:10;92735.41;;;4.70;75.78
52249;BME280;38541;48.130;8.378;2023-12-20T03:39:36;92737.91;;;4.65;75.69
52249;BME280;38541;48.130;8.378;2023-12-20T03:42:03;92734.84;;;4.56;75.40
52249;BME280;38541;48.130;8.378;2023-12-20T03:44:30;92742.25;;;4.29;76.04
52249;BME280;38541;48.130;8.378;2023-12-20T03:46:56;92743.63;;;4.32;76.75
52249;BME280;38541;48.130;8.378;2023-12-20T03:49:22;92748.84;;;4.43;76.78
52249;BME280;38541;48.130;8.378;2023-12-20T03:51:49;92759.47;;;4.42;76.43
52249;BME280;38541;48.130;8.378;2023-12-20T03:54:16;92763.44;;;4.33;76.56
52249;BME280;38541;48.130;8.378;2023-12-20T03:56:42;92755.16;;;4.24;76.73
52249;BME280;38541;48.130;8.378;2023-12-20T03:59:09;92769.75;;;4.37;76.63
52249;BME280;38541;48.130;8.378;2023-12-20T04:01:35;92766.94;;;4.38;76.19
52249;BME280;38541;48.130;8.378;2023-12-20T04:04:02;92760.00;;;4.20;75.93
52249;BME280;38541;48.130;8.378;2023-12-20T04:06:29;92760.81;;;4.33;75.67
52249;BME280;38541;48.130;8.378;2023-12-20T04:08:56;92762.72;;;4.25;76.30
52249;BME280;38541;48.130;8.378;2023-12-20T04:11:22;92765.56;;;4.36;76.29
52249;BME280;38541;48.130;8.378;2023-12-20T04:13:48;92761.19;;;4.36;76.27
52249;BME280;38541;48.130;8.378;2023-12-20T04:16:15;92757.03;;;4.17;75.92
52249;BME280;38541;48.130;8.378;2023-12-20T04:18:42;92763.03;;;4.17;75.79
52249;BME280;38541;48.130;8.378;2023-12-20T04:21:08;92758.72;;;4.11;76.22
52249;BME280;38541;48.130;8.378;2023-12-20T04:23:35;92763.69;;;4.12;76.29
52249;BME280;38541;48.130;8.378;2023-12-20T04:26:01;92761.00;;;4.19;75.94
52249;BME280;38541;48.130;8.378;2023-12-20T04:28:28;92767.09;;;4.13;75.98
52249;BME280;38541;48.130;8.378;2023-12-20T04:30:56;92761.63;;;4.03;76.08
52249;BME280;38541;48.130;8.378;2023-12-20T04:33:23;92758.72;;;4.11;76.32
52249;BME280;38541;48.130;8.378;2023-12-20T04:35:50;92767.00;;;4.20;76.05
52249;BME280;38541;48.130;8.378;2023-12-20T04:38:16;92767.78;;;4.20;75.79
52249;BME280;38541;48.130;8.378;2023-12-20T04:40:43;92769.03;;;4.18;75.81
52249;BME280;38541;48.130;8.378;2023-12-20T04:43:09;92769.81;;;4.18;75.88
52249;BME280;38541;48.130;8.378;2023-12-20T04:45:36;92784.41;;;4.19;75.42
52249;BME280;38541;48.130;8.378;2023-12-20T04:48:03;92769.38;;;4.21;75.49
52249;BME280;38541;48.130;8.378;2023-12-20T04:50:30;92774.25;;;4.18;75.66
52249;BME280;38541;48.130;8.378;2023-12-20T04:52:57;92782.03;;;4.18;75.71
52249;BME280;38541;48.130;8.378;2023-12-20T04:55:23;92777.94;;;4.10;76.00
52249;BME280;38541;48.130;8.378;2023-12-20T04:57:50;92785.19;;;4.08;76.37
52249;BME280;38541;48.130;8.378;2023-12-20T05:00:16;92785.22;;;4.20;76.37
52249;BME280;38541;48.130;8.378;2023-12-20T05:02:43;92799.56;;;4.22;76.79
52249;BME280;38541;48.130;8.378;2023-12-20T05:05:10;92797.59;;;4.36;76.77
52249;BME280;38541;48.130;8.378;2023-12-20T05:07:36;92797.81;;;4.35;76.02
52249;BME280;38541;48.130;8.378;2023-12-20T05:10:03;92790.44;;;4.32;76.07
52249;BME280;38541;48.130;8.378;2023-12-20T05:12:30;92801.19;;;4.35;76.15
52249;BME280;38541;48.130;8.378;2023-12-20T05:14:58;92790.91;;;4.28;76.49
52249;BME280;38541;48.130;8.378;2023-12-20T05:17:24;92797.91;;;4.40;76.60
52249;BME280;38541;48.130;8.378;2023-12-20T05:19:51;92800.63;;;4.45;77.22
52249;BME280;38541;48.130;8.378;2023-12-20T05:22:19;92802.78;;;4.36;76.39
52249;BME280;38541;48.130;8.378;2023-12-20T05:24:46;92809.22;;;4.34;76.80
52249;BME280;38541;48.130;8.378;2023-12-20T05:27:13;92809.91;;;4.41;77.67
52249;BME280;38541;48.130;8.378;2023-12-20T05:29:39;92811.97;;;4.51;77.05
52249;BME280;38541;48.130;8.378;2023-12-20T05:32:06;92812.66;;;4.46;76.60
52249;BME280;38541;48.130;8.378;2023-12-20T05:34:32;92818.19;;;4.50;76.72
52249;BME280;38541;48.130;8.378;2023-12-20T05:36:59;92815.38;;;4.51;77.16
52249;BME280;38541;48.130;8.378;2023-12-20T05:39:26;92820.25;;;4.60;77.00
52249;BME280;38541;48.130;8.378;2023-12-20T05:41:52;92820.41;;;4.65;76.77
52249;BME280;38541;48.130;8.378;2023-12-20T05:44:19;92815.75;;;4.67;76.75
52249;BME280;38541;48.130;8.378;2023-12-20T05:46:45;92816.31;;;4.69;76.95
52249;BME280;38541;48.130;8.378;2023-12-20T05:49:12;92825.47;;;4.71;76.75
52249;BME280;38541;48.130;8.378;2023-12-20T05:51:38;92817.47;;;4.73;76.80
52249;BME280;38541;48.130;8.378;2023-12-20T05:54:05;92830.59;;;4.78;76.90
52249;BME280;38541;48.130;8.378;2023-12-20T05:56:31;92818.16;;;4.80;76.45
52249;BME280;38541;48.130;8.378;2023-12-20T05:58:58;92831.84;;;4.76;76.25
52249;BME280;38541;48.130;8.378;2023-12-20T06:01:25;92847.47;;;4.76;76.36
52249;BME280;38541;48.130;8.378;2023-12-20T06:03:51;92856.50;;;4.73;76.47
52249;BME280;38541;48.130;8.378;2023-12-20T06:06:18;92859.56;;;4.70;76.53
52249;BME280;38541;48.130;8.378;2023-12-20T06:08:45;92860.69;;;4.74;76.88
52249;BME280;38541;48.130;8.378;2023-12-20T06:11:11;92872.44;;;4.65;76.72
52249;BME280;38541;48.130;8.378;2023-12-20T06:13:39;92877.81;;;4.51;77.62
52249;BME280;38541;48.130;8.378;2023-12-20T06:16:06;92878.25;;;4.48;77.57
52249;BME280;38541;48.130;8.378;2023-12-20T06:18:36;92878.38;;;4.53;78.04
52249;BME280;38541;48.130;8.378;2023-12-20T06:21:03;92884.31;;;4.42;77.93
52249;BME280;38541;48.130;8.378;2023-12-20T06:23:30;92886.59;;;4.38;78.14
52249;BME280;38541;48.130;8.378;2023-12-20T06:25:57;92889.97;;;4.39;78.87
52249;BME280;38541;48.130;8.378;2023-12-20T06:28:23;92884.06;;;4.32;79.40
52249;BME280;38541;48.130;8.378;2023-12-20T06:30:50;92883.09;;;4.45;79.30
52249;BME280;38541;48.130;8.378;2023-12-20T06:33:20;92893.16;;;4.41;79.40
52249;BME280;38541;48.130;8.378;2023-12-20T06:35:49;92899.16;;;4.41;79.15
52249;BME280;38541;48.130;8.378;2023-12-20T06:38:17;92898.72;;;4.45;79.20
52249;BME280;38541;48.130;8.378;2023-12-20T06:40:44;92895.53;;;4.42;79.15
52249;BME280;38541;48.130;8.378;2023-12-20T06:43:12;92889.09;;;4.45;79.32
52249;BME280;38541;48.130;8.378;2023-12-20T06:45:58;92890.25;;;4.49;79.17
52249;BME280;38541;48.130;8.378;2023-12-20T06:48:24;92890.94;;;4.56;79.62
52249;BME280;38541;48.130;8.378;2023-12-20T06:50:51;92890.41;;;4.66;79.21
52249;BME280;38541;48.130;8.378;2023-12-20T06:53:17;92879.22;;;4.66;79.24
52249;BME280;38541;48.130;8.378;2023-12-20T06:55:44;92890.94;;;4.56;78.45
52249;BME280;38541;48.130;8.378;2023-12-20T06:58:10;92902.25;;;4.50;78.95
52249;BME280;38541;48.130;8.378;2023-12-20T07:00:37;92904.00;;;4.38;78.88
52249;BME280;38541;48.130;8.378;2023-12-20T07:03:04;92899.69;;;4.32;79.32
52249;BME280;38541;48.130;8.378;2023-12-20T07:05:30;92906.19;;;4.22;80.16
52249;BME280;38541;48.130;8.378;2023-12-20T07:07:57;92908.22;;;4.20;80.07
52249;BME280;38541;48.130;8.378;2023-12-20T07:10:24;92912.88;;;4.30;80.35
52249;BME280;38541;48.130;8.378;2023-12-20T07:12:50;92910.88;;;4.32;79.84
52249;BME280;38541;48.130;8.378;2023-12-20T07:15:17;92914.84;;;4.35;80.21
52249;BME280;38541;48.130;8.378;2023-12-20T07:17:44;92913.03;;;4.35;79.97
52249;BME280;38541;48.130;8.378;2023-12-20T07:20:11;92908.19;;;4.39;80.05
52249;BME280;38541;48.130;8.378;2023-12-20T07:22:38;92913.63;;;4.37;79.67
52249;BME280;38541;48.130;8.378;2023-12-20T07:25:06;92910.88;;;4.32;79.59
52249;BME280;38541;48.130;8.378;2023-12-20T07:27:33;92914.84;;;4.35;79.66
52249;BME280;38541;48.130;8.378;2023-12-20T07:29:59;92920.50;;;4.32;79.47
52249;BME280;38541;48.130;8.378;2023-12-20T07:32:26;92923.31;;;4.11;79.53
52249;BME280;38541;48.130;8.378;2023-12-20T07:34:53;92917.31;;;4.11;79.99
52249;BME280;38541;48.130;8.378;2023-12-20T07:37:21;92928.75;;;4.10;79.83
52249;BME280;38541;48.130;8.378;2023-12-20T07:39:48;92928.81;;;4.03;79.92
52249;BME280;38541;48.130;8.378;2023-12-20T07:42:14;92924.81;;;4.00;80.77
52249;BME280;38541;48.130;8.378;2023-12-20T07:44:41;92929.38;;;4.05;80.57
52249;BME280;38541;48.130;8.378;2023-12-20T07:47:07;92932.84;;;4.18;80.66
52249;BME280;38541;48.130;8.378;2023-12-20T07:49:34;92937.63;;;4.21;79.97
52249;BME280;38541;48.130;8.378;2023-12-20T07:52:01;92932.34;;;4.27;80.15
52249;BME280;38541;48.130;8.378;2023-12-20T07:54:27;92938.91;;;4.30;80.13
52249;BME280;38541;48.130;8.378;2023-12-20T07:56:54;92933.94;;;4.28;80.06
52249;BME280;38541;48.130;8.378;2023-12-20T07:59:20;92940.47;;;4.31;80.03
52249;BME280;38541;48.130;8.378;2023-12-20T08:01:57;92946.84;;;4.35;80.18
52249;BME280;38541;48.130;8.378;2023-12-20T08:04:24;92956.03;;;4.38;79.55
52249;BME280;38541;48.130;8.378;2023-12-20T08:06:51;92953.28;;;4.33;79.41
52249;BME280;38541;48.130;8.378;2023-12-20T08:09:18;92948.78;;;4.40;79.31
52249;BME280;38541;48.130;8.378;2023-12-20T08:11:48;92960.78;;;4.41;79.50
52249;BME280;38541;48.130;8.378;2023-12-20T08:14:15;92959.63;;;4.37;79.31
52249;BME280;38541;48.130;8.378;2023-12-20T08:16:44;92957.34;;;4.28;79.07
52249;BME280;38541;48.130;8.378;2023-12-20T08:19:11;92957.34;;;4.28;79.49
52249;BME280;38541;48.130;8.378;2023-12-20T08:21:37;92958.56;;;4.26;79.63
52249;BME280;38541;48.130;8.378;2023-12-20T08:24:05;92961.03;;;4.21;80.11
52249;BME280;38541;48.130;8.378;2023-12-20T08:26:32;92955.81;;;4.21;80.33
52249;BME280;38541;48.130;8.378;2023-12-20T08:28:59;92947.44;;;4.19;80.79
52249;BME280;38541;48.130;8.378;2023-12-20T08:31:28;92948.44;;;3.99;81.16
52249;BME280;38541;48.130;8.378;2023-12-20T08:33:55;92945.91;;;4.11;81.56
52249;BME280;38541;48.130;8.378;2023-12-20T08:36:22;92948.09;;;4.14;81.64
52249;BME280;38541;48.130;8.378;2023-12-20T08:38:50;92953.41;;;4.19;81.40
52249;BME280;38541;48.130;8.378;2023-12-20T08:41:17;92956.47;;;4.35;82.16
52249;BME280;38541;48.130;8.378;2023-12-20T08:43:44;92951.97;;;4.23;81.17
52249;BME280;38541;48.130;8.378;2023-12-20T08:46:10;92953.03;;;4.34;80.53
52249;BME280;38541;48.130;8.378;2023-12-20T08:48:38;92961.16;;;4.45;80.48
52249;BME280;38541;48.130;8.378;2023-12-20T08:51:05;92958.63;;;4.38;79.71
52249;BME280;38541;48.130;8.378;2023-12-20T08:53:33;92966.78;;;4.41;79.63
52249;BME280;38541;48.130;8.378;2023-12-20T08:56:00;92969.09;;;4.50;79.32
52249;BME280;38541;48.130;8.378;2023-12-20T08:58:28;92965.19;;;4.40;79.13
52249;BME280;38541;48.130;8.378;2023-12-20T09:00:55;92961.28;;;4.50;78.89
52249;BME280;38541;48.130;8.378;2023-12-20T09:03:21;92970.97;;;4.61;78.69
52249;BME280;38541;48.130;8.378;2023-12-20T09:05:48;92959.16;;;4.59;78.36
52249;BME280;38541;48.130;8.378;2023-12-20T09:08:14;92969.88;;;4.50;78.19
52249;BME280;38541;48.130;8.378;2023-12-20T09:10:41;92979.34;;;4.26;77.55
52249;BME280;38541;48.130;8.378;2023-12-20T09:13:07;92985.38;;;4.26;77.96
52249;BME280;38541;48.130;8.378;2023-12-20T09:15:34;92983.34;;;4.28;78.10
52249;BME280;38541;48.130;8.378;2023-12-20T09:18:02;92981.75;;;4.27;78.04
52249;BME280;38541;48.130;8.378;2023-12-20T09:20:30;92993.31;;;4.32;78.30
52249;BME280;38541;48.130;8.378;2023-12-20T09:22:57;92995.91;;;4.32;77.72
52249;BME280;38541;48.130;8.378;2023-12-20T09:25:24;92996.91;;;4.49;77.98
52249;BME280;38541;48.130;8.378;2023-12-20T09:27:52;93006.75;;;4.28;76.96
52249;BME280;38541;48.130;8.378;2023-12-20T09:30:19;93003.97;;;4.23;77.06
52249;BME280;38541;48.130;8.378;2023-12-20T09:32:56;92990.91;;;4.11;77.05
52249;BME280;38541;48.130;8.378;2023-12-20T09:35:22;92997.13;;;4.10;77.08
52249;BME280;38541;48.130;8.378;2023-12-20T09:37:50;93012.84;;;3.97;77.04
52249;BME280;38541;48.130;8.378;2023-12-20T09:40:18;93009.16;;;4.05;77.33
52249;BME280;38541;48.130;8.378;2023-12-20T09:42:58;93002.25;;;4.17;76.57
52249;BME280;38541;48.130;8.378;2023-12-20T09:45:25;93001.31;;;4.30;76.35
52249;BME280;38541;48.130;8.378;2023-12-20T09:47:53;93004.34;;;4.46;76.23
52249;BME280;38541;48.130;8.378;2023-12-20T09:50:22;93002.97;;;4.43;75.82
52249;BME280;38541;48.130;8.378;2023-12-20T09:52:52;93010.13;;;4.48;75.62
52249;BME280;38541;48.130;8.378;2023-12-20T09:55:28;93000.31;;;4.50;75.40
52249;BME280;38541;48.130;8.378;2023-12-20T09:57:59;93009.56;;;4.46;75.67
52249;BME280;38541;48.130;8.378;2023-12-20T10:00:30;92998.06;;;4.35;75.42
52249;BME280;38541;48.130;8.378;2023-12-20T10:02:59;92997.13;;;4.29;75.62
52249;BME280;38541;48.130;8.378;2023-12-20T10:05:30;92988.81;;;4.39;75.83
52249;BME280;38541;48.130;8.378;2023-12-20T10:07:59;92982.31;;;4.48;74.76
52249;BME280;38541;48.130;8.378;2023-12-20T10:10:27;92979.41;;;4.56;75.17
52249;BME280;38541;48.130;8.378;2023-12-20T10:13:10;92992.56;;;4.62;74.41
52249;BME280;38541;48.130;8.378;2023-12-20T10:15:40;92991.16;;;4.47;74.92
52249;BME280;38541;48.130;8.378;2023-12-20T10:18:09;92991.28;;;4.52;74.34
52249;BME280;38541;48.130;8.378;2023-12-20T10:20:40;92986.13;;;4.64;74.79
52249;BME280;38541;48.130;8.378;2023-12-20T10:23:10;92987.00;;;4.58;73.38
52249;BME280;38541;48.130;8.378;2023-12-20T10:25:39;92983.84;;;4.56;73.28
52249;BME280;38541;48.130;8.378;2023-12-20T10:30:36;92978.00;;;4.72;72.54
52249;BME280;38541;48.130;8.378;2023-12-20T10:33:03;92978.19;;;4.59;72.08
52249;BME280;38541;48.130;8.378;2023-12-20T10:35:32;92978.78;;;4.42;72.18
52249;BME280;38541;48.130;8.378;2023-12-20T10:38:04;92973.72;;;4.29;72.09
52249;BME280;38541;48.130;8.378;2023-12-20T10:40:36;92985.94;;;4.28;72.10
52249;BME280;38541;48.130;8.378;2023-12-20T10:43:05;92970.91;;;3.93;71.47
52249;BME280;38541;48.130;8.378;2023-12-20T10:45:34;92963.25;;;3.98;71.78
52249;BME280;38541;48.130;8.378;2023-12-20T10:48:01;92966.84;;;3.97;72.41
52249;BME280;38541;48.130;8.378;2023-12-20T10:50:29;92965.41;;;4.02;72.46
52249;BME280;38541;48.130;8.378;2023-12-20T10:52:58;92968.88;;;4.33;72.49
52249;BME280;38541;48.130;8.378;2023-12-20T10:55:27;92971.63;;;4.00;70.91
52249;BME280;38541;48.130;8.378;2023-12-20T10:58:02;92976.03;;;4.19;71.35
52249;BME280;38541;48.130;8.378;2023-12-20T11:00:31;92973.94;;;4.46;70.99
52249;BME280;38541;48.130;8.378;2023-12-20T11:03:00;92986.50;;;4.49;70.61
52249;BME280;38541;48.130;8.378;2023-12-20T11:05:50;92976.97;;;4.24;69.37
52249;BME280;38541;48.130;8.378;2023-12-20T11:11:42;92973.06;;;3.96;70.03
52249;BME280;38541;48.130;8.378;2023-12-20T11:14:19;92965.31;;;3.90;70.50
52249;BME280;38541;48.130;8.378;2023-12-20T11:16:47;92966.63;;;3.80;70.66
52249;BME280;38541;48.130;8.378;2023-12-20T11:19:21;92957.59;;;3.83;70.94
52249;BME280;38541;48.130;8.378;2023-12-20T11:21:48;92963.28;;;3.73;70.71
52249;BME280;38541;48.130;8.378;2023-12-20T11:24:15;92959.91;;;3.73;70.96
52249;BME280;38541;48.130;8.378;2023-12-20T11:26:47;92960.25;;;3.76;70.80
52249;BME280;38541;48.130;8.378;2023-12-20T11:29:31;92960.72;;;3.66;70.64
52249;BME280;38541;48.130;8.378;2023-12-20T11:32:03;92960.00;;;3.59;70.98
52249;BME280;38541;48.130;8.378;2023-12-20T11:34:33;92955.97;;;3.63;71.02
52249;BME280;38541;48.130;8.378;2023-12-20T11:37:03;92945.81;;;3.62;71.29
52249;BME280;38541;48.130;8.378;2023-12-20T11:39:31;92956.16;;;3.43;71.59
52249;BME280;38541;48.130;8.378;2023-12-20T11:42:04;92960.53;;;3.42;71.37
52249;BME280;38541;48.130;8.378;2023-12-20T11:44:31;92967.41;;;3.30;71.99
52249;BME280;38541;48.130;8.378;2023-12-20T11:47:00;92956.94;;;3.43;71.83
52249;BME280;38541;48.130;8.378;2023-12-20T11:49:27;92956.78;;;3.64;71.89
52249;BME280;38541;48.130;8.378;2023-12-20T11:51:57;92958.78;;;3.62;70.98
52249;BME280;38541;48.130;8.378;2023-12-20T11:54:23;92962.16;;;3.62;71.40
52249;BME280;38541;48.130;8.378;2023-12-20T11:56:50;92951.94;;;3.67;71.14
52249;BME280;38541;48.130;8.378;2023-12-20T11:59:17;92944.72;;;3.69;70.13
52249;BME280;38541;48.130;8.378;2023-12-20T12:01:50;92953.84;;;3.79;70.52
52249;BME280;38541;48.130;8.378;2023-12-20T12:04:18;92960.72;;;3.66;68.92
52249;BME280;38541;48.130;8.378;2023-12-20T12:06:46;92965.81;;;3.54;68.63
52249;BME280;38541;48.130;8.378;2023-12-20T12:09:13;92955.34;;;3.42;68.51
52249;BME280;38541;48.130;8.378;2023-12-20T12:11:40;92953.38;;;3.38;68.96
52249;BME280;38541;48.130;8.378;2023-12-20T12:14:07;92956.06;;;3.50;69.64
52249;BME280;38541;48.130;8.378;2023-12-20T12:16:34;92950.53;;;3.46;69.41
52249;BME280;38541;48.130;8.378;2023-12-20T12:19:01;92955.09;;;3.25;69.65
52249;BME280;38541;48.130;8.378;2023-12-20T12:21:28;92976.53;;;3.39;70.96
52249;BME280;38541;48.130;8.378;2023-12-20T12:24:09;92959.53;;;3.43;70.18
52249;BME280;38541;48.130;8.378;2023-12-20T12:26:36;92961.81;;;3.33;69.91
52249;BME280;38541;48.130;8.378;2023-12-20T12:29:07;92958.31;;;3.21;70.08
52249;BME280;38541;48.130;8.378;2023-12-20T12:31:34;92953.78;;;3.09;69.85
52249;BME280;38541;48.130;8.378;2023-12-20T12:34:01;92962.38;;;3.10;70.38
52249;BME280;38541;48.130;8.378;2023-12-20T12:36:29;92971.59;;;3.31;69.90
52249;BME280;38541;48.130;8.378;2023-12-20T12:38:57;92964.47;;;3.26;69.89
52249;BME280;38541;48.130;8.378;2023-12-20T12:41:29;92957.13;;;3.17;69.38
52249;BME280;38541;48.130;8.378;2023-12-20T12:43:56;92957.88;;;3.24;69.62
52249;BME280;38541;48.130;8.378;2023-12-20T12:46:29;92978.59;;;3.31;69.44
52249;BME280;38541;48.130;8.378;2023-12-20T12:48:56;92976.38;;;3.34;68.85
52249;BME280;38541;48.130;8.378;2023-12-20T12:51:25;92970.69;;;3.19;69.80
52249;BME280;38541;48.130;8.378;2023-12-20T12:53:52;92971.28;;;3.21;69.56
52249;BME280;38541;48.130;8.378;2023-12-20T12:56:19;92965.75;;;3.10;70.01
52249;BME280;38541;48.130;8.378;2023-12-20T12:58:46;92977.91;;;3.17;70.33
52249;BME280;38541;48.130;8.378;2023-12-20T13:01:12;92971.63;;;2.99;69.13
52249;BME280;38541;48.130;8.378;2023-12-20T13:03:39;92962.03;;;2.99;69.52
52249;BME280;38541;48.130;8.378;2023-12-20T13:06:05;92958.38;;;3.07;69.96
52249;BME280;38541;48.130;8.378;2023-12-20T13:08:35;92961.97;;;3.06;69.31
52249;BME280;38541;48.130;8.378;2023-12-20T13:11:01;92959.47;;;3.25;69.93
52249;BME280;38541;48.130;8.378;2023-12-20T13:13:31;92948.13;;;3.45;69.96
52249;BME280;38541;48.130;8.378;2023-12-20T13:15:57;92944.22;;;3.35;68.88
52249;BME280;38541;48.130;8.378;2023-12-20T13:18:24;92943.94;;;3.18;69.08